sensor_id;sensor_type;location;lat;lon;timestamp;P1;durP1;ratioP1;P2;durP2;ratioP2
30233;SDS011;17046;52.074;4.748;2022-08-30T00:00:24;10.45;;;3.85;;
30233;SDS011;17046;52.074;4.748;2022-08-30T00:03:09;5.97;;;3.75;;
30233;SDS011;17046;52.074;4.748;2022-08-30T00:05:37;9.63;;;4.05;;
30233;SDS011;17046;52.074;4.748;2022-08-30T00:08:03;7.53;;;4.00;;
30233;SDS011;17046;52.074;4.748;2022-08-30T00:10:29;7.18;;;3.70;;
30233;SDS011;17046;52.074;4.748;2022-08-30T00:12:55;9.68;;;4.15;;
30233;SDS011;17046;52.074;4.748;2022-08-30T00:15:22;6.47;;;3.50;;
30233;SDS011;17046;52.074;4.748;2022-08-30T00:17:48;9.27;;;4.28;;
30233;SDS011;17046;52.074;4.748;2022-08-30T00:20:17;7.95;;;4.28;;
30233;SDS011;17046;52.074;4.748;2022-08-30T00:22:45;7.38;;;4.00;;
30233;SDS011;17046;52.074;4.748;2022-08-30T00:25:11;10.32;;;4.15;;
30233;SDS011;17046;52.074;4.748;2022-08-30T00:27:37;7.03;;;4.25;;
30233;SDS011;17046;52.074;4.748;2022-08-30T00:30:03;9.45;;;4.25;;
30233;SDS011;17046;52.074;4.748;2022-08-30T00:32:29;10.32;;;4.20;;
30233;SDS011;17046;52.074;4.748;2022-08-30T00:34:55;7.60;;;4.03;;
30233;SDS011;17046;52.074;4.748;2022-08-30T00:37:20;7.18;;;4.15;;
30233;SDS011;17046;52.074;4.748;2022-08-30T00:39:47;10.00;;;4.15;;
30233;SDS011;17046;52.074;4.748;2022-08-30T00:42:14;9.18;;;4.28;;
30233;SDS011;17046;52.074;4.748;2022-08-30T00:44:40;6.70;;;4.20;;
30233;SDS011;17046;52.074;4.748;2022-08-30T00:47:06;10.50;;;4.40;;
30233;SDS011;17046;52.074;4.748;2022-08-30T00:49:33;8.48;;;4.07;;
30233;SDS011;17046;52.074;4.748;2022-08-30T00:52:00;7.07;;;3.80;;
30233;SDS011;17046;52.074;4.748;2022-08-30T00:54:27;9.15;;;3.97;;
30233;SDS011;17046;52.074;4.748;2022-08-30T00:56:54;7.45;;;3.78;;
30233;SDS011;17046;52.074;4.748;2022-08-30T00:59:19;8.52;;;3.80;;
30233;SDS011;17046;52.074;4.748;2022-08-30T01:01:48;7.38;;;4.38;;
30233;SDS011;17046;52.074;4.748;2022-08-30T01:04:14;7.50;;;4.03;;
30233;SDS011;17046;52.074;4.748;2022-08-30T01:06:40;7.35;;;4.05;;
30233;SDS011;17046;52.074;4.748;2022-08-30T01:09:06;8.75;;;4.43;;
30233;SDS011;17046;52.074;4.748;2022-08-30T01:11:33;8.73;;;4.30;;
30233;SDS011;17046;52.074;4.748;2022-08-30T01:14:02;10.02;;;4.22;;
30233;SDS011;17046;52.074;4.748;2022-08-30T01:16:30;6.43;;;3.95;;
30233;SDS011;17046;52.074;4.748;2022-08-30T01:18:57;7.85;;;4.60;;
30233;SDS011;17046;52.074;4.748;2022-08-30T01:23:59;8.70;;;4.90;;
30233;SDS011;17046;52.074;4.748;2022-08-30T01:26:27;9.68;;;4.55;;
30233;SDS011;17046;52.074;4.748;2022-08-30T01:28:54;6.43;;;4.47;;
30233;SDS011;17046;52.074;4.748;2022-08-30T01:31:24;7.85;;;4.20;;
30233;SDS011;17046;52.074;4.748;2022-08-30T01:33:50;8.45;;;5.05;;
30233;SDS011;17046;52.074;4.748;2022-08-30T01:36:16;7.28;;;4.80;;
30233;SDS011;17046;52.074;4.748;2022-08-30T01:38:48;7.72;;;4.60;;
30233;SDS011;17046;52.074;4.748;2022-08-30T01:43:45;11.82;;;5.25;;
30233;SDS011;17046;52.074;4.748;2022-08-30T01:46:12;9.18;;;5.13;;
30233;SDS011;17046;52.074;4.748;2022-08-30T01:48:39;8.63;;;4.97;;
30233;SDS011;17046;52.074;4.748;2022-08-30T01:51:09;9.18;;;5.13;;
30233;SDS011;17046;52.074;4.748;2022-08-30T01:53:35;6.57;;;5.63;;
30233;SDS011;17046;52.074;4.748;2022-08-30T01:56:02;7.95;;;5.90;;
30233;SDS011;17046;52.074;4.748;2022-08-30T01:58:29;10.05;;;5.57;;
30233;SDS011;17046;52.074;4.748;2022-08-30T02:00:55;11.15;;;6.45;;
30233;SDS011;17046;52.074;4.748;2022-08-30T02:03:21;10.40;;;6.07;;
30233;SDS011;17046;52.074;4.748;2022-08-30T02:05:46;11.35;;;6.38;;
30233;SDS011;17046;52.074;4.748;2022-08-30T02:08:12;10.57;;;6.57;;
30233;SDS011;17046;52.074;4.748;2022-08-30T02:10:38;10.18;;;6.50;;
30233;SDS011;17046;52.074;4.748;2022-08-30T02:13:03;9.43;;;6.85;;
30233;SDS011;17046;52.074;4.748;2022-08-30T02:15:29;8.70;;;7.05;;
30233;SDS011;17046;52.074;4.748;2022-08-30T02:17:54;10.88;;;6.93;;
30233;SDS011;17046;52.074;4.748;2022-08-30T02:20:20;9.40;;;7.18;;
30233;SDS011;17046;52.074;4.748;2022-08-30T02:22:46;11.55;;;7.85;;
30233;SDS011;17046;52.074;4.748;2022-08-30T02:25:11;11.80;;;7.97;;
30233;SDS011;17046;52.074;4.748;2022-08-30T02:27:37;11.38;;;7.53;;
30233;SDS011;17046;52.074;4.748;2022-08-30T02:30:04;17.38;;;8.20;;
30233;SDS011;17046;52.074;4.748;2022-08-30T02:32:31;12.10;;;8.30;;
30233;SDS011;17046;52.074;4.748;2022-08-30T02:34:56;12.27;;;7.95;;
30233;SDS011;17046;52.074;4.748;2022-08-30T02:37:22;11.63;;;8.40;;
30233;SDS011;17046;52.074;4.748;2022-08-30T02:39:47;19.35;;;9.20;;
30233;SDS011;17046;52.074;4.748;2022-08-30T02:42:13;14.20;;;9.40;;
30233;SDS011;17046;52.074;4.748;2022-08-30T02:44:38;15.43;;;9.70;;
30233;SDS011;17046;52.074;4.748;2022-08-30T02:47:04;12.93;;;8.95;;
30233;SDS011;17046;52.074;4.748;2022-08-30T02:49:29;15.27;;;9.20;;
30233;SDS011;17046;52.074;4.748;2022-08-30T02:51:55;15.98;;;9.45;;
30233;SDS011;17046;52.074;4.748;2022-08-30T02:54:20;14.75;;;10.18;;
30233;SDS011;17046;52.074;4.748;2022-08-30T02:56:46;17.20;;;9.82;;
30233;SDS011;17046;52.074;4.748;2022-08-30T02:59:13;14.20;;;9.68;;
30233;SDS011;17046;52.074;4.748;2022-08-30T03:01:40;15.45;;;9.48;;
30233;SDS011;17046;52.074;4.748;2022-08-30T03:04:06;12.38;;;9.35;;
30233;SDS011;17046;52.074;4.748;2022-08-30T03:06:32;15.60;;;10.95;;
30233;SDS011;17046;52.074;4.748;2022-08-30T03:08:57;19.27;;;11.30;;
30233;SDS011;17046;52.074;4.748;2022-08-30T03:11:23;17.45;;;11.30;;
30233;SDS011;17046;52.074;4.748;2022-08-30T03:13:49;18.00;;;11.68;;
30233;SDS011;17046;52.074;4.748;2022-08-30T03:16:15;15.68;;;11.23;;
30233;SDS011;17046;52.074;4.748;2022-08-30T03:18:40;15.50;;;11.60;;
30233;SDS011;17046;52.074;4.748;2022-08-30T03:21:10;16.75;;;11.23;;
30233;SDS011;17046;52.074;4.748;2022-08-30T03:23:37;15.63;;;11.45;;
30233;SDS011;17046;52.074;4.748;2022-08-30T03:26:04;15.27;;;11.80;;
30233;SDS011;17046;52.074;4.748;2022-08-30T03:28:31;15.75;;;11.80;;
30233;SDS011;17046;52.074;4.748;2022-08-30T03:30:56;18.15;;;11.48;;
30233;SDS011;17046;52.074;4.748;2022-08-30T03:33:22;18.98;;;12.18;;
30233;SDS011;17046;52.074;4.748;2022-08-30T03:35:47;17.67;;;12.27;;
30233;SDS011;17046;52.074;4.748;2022-08-30T03:38:13;18.20;;;13.32;;
30233;SDS011;17046;52.074;4.748;2022-08-30T03:40:39;18.92;;;13.27;;
30233;SDS011;17046;52.074;4.748;2022-08-30T03:43:05;19.27;;;12.63;;
30233;SDS011;17046;52.074;4.748;2022-08-30T03:45:31;18.17;;;13.15;;
30233;SDS011;17046;52.074;4.748;2022-08-30T03:47:56;18.52;;;13.50;;
30233;SDS011;17046;52.074;4.748;2022-08-30T03:50:23;19.50;;;13.65;;
30233;SDS011;17046;52.074;4.748;2022-08-30T03:52:48;18.00;;;13.00;;
30233;SDS011;17046;52.074;4.748;2022-08-30T03:55:14;15.82;;;12.45;;
30233;SDS011;17046;52.074;4.748;2022-08-30T03:57:39;20.63;;;13.20;;
30233;SDS011;17046;52.074;4.748;2022-08-30T04:00:06;18.33;;;12.57;;
30233;SDS011;17046;52.074;4.748;2022-08-30T04:02:33;15.45;;;12.60;;
30233;SDS011;17046;52.074;4.748;2022-08-30T04:04:58;20.25;;;13.82;;
30233;SDS011;17046;52.074;4.748;2022-08-30T04:07:24;17.15;;;13.35;;
30233;SDS011;17046;52.074;4.748;2022-08-30T04:09:49;18.90;;;12.90;;
30233;SDS011;17046;52.074;4.748;2022-08-30T04:12:15;18.02;;;13.02;;
30233;SDS011;17046;52.074;4.748;2022-08-30T04:14:40;15.63;;;11.63;;
30233;SDS011;17046;52.074;4.748;2022-08-30T04:17:06;21.40;;;13.05;;
30233;SDS011;17046;52.074;4.748;2022-08-30T04:19:31;18.77;;;13.30;;
30233;SDS011;17046;52.074;4.748;2022-08-30T04:21:57;16.55;;;12.30;;
30233;SDS011;17046;52.074;4.748;2022-08-30T04:24:22;17.88;;;12.45;;
30233;SDS011;17046;52.074;4.748;2022-08-30T04:26:49;20.83;;;13.75;;
30233;SDS011;17046;52.074;4.748;2022-08-30T04:29:14;20.60;;;13.32;;
30233;SDS011;17046;52.074;4.748;2022-08-30T04:31:42;17.73;;;13.80;;
30233;SDS011;17046;52.074;4.748;2022-08-30T04:34:12;19.50;;;13.27;;
30233;SDS011;17046;52.074;4.748;2022-08-30T04:36:38;15.98;;;12.30;;
30233;SDS011;17046;52.074;4.748;2022-08-30T04:39:04;15.80;;;13.05;;
30233;SDS011;17046;52.074;4.748;2022-08-30T04:41:30;20.77;;;13.52;;
30233;SDS011;17046;52.074;4.748;2022-08-30T04:43:55;19.10;;;13.55;;
30233;SDS011;17046;52.074;4.748;2022-08-30T04:46:21;19.58;;;13.50;;
30233;SDS011;17046;52.074;4.748;2022-08-30T04:48:46;16.65;;;13.65;;
30233;SDS011;17046;52.074;4.748;2022-08-30T04:51:14;18.77;;;13.68;;
30233;SDS011;17046;52.074;4.748;2022-08-30T04:53:41;18.58;;;14.07;;
30233;SDS011;17046;52.074;4.748;2022-08-30T04:56:08;19.38;;;13.85;;
30233;SDS011;17046;52.074;4.748;2022-08-30T04:58:35;20.77;;;14.15;;
30233;SDS011;17046;52.074;4.748;2022-08-30T05:01:01;17.95;;;13.65;;
30233;SDS011;17046;52.074;4.748;2022-08-30T05:03:27;19.90;;;14.95;;
30233;SDS011;17046;52.074;4.748;2022-08-30T05:05:53;22.05;;;15.40;;
30233;SDS011;17046;52.074;4.748;2022-08-30T05:08:19;22.40;;;15.30;;
30233;SDS011;17046;52.074;4.748;2022-08-30T05:10:47;18.90;;;14.40;;
30233;SDS011;17046;52.074;4.748;2022-08-30T05:13:14;19.15;;;14.82;;
30233;SDS011;17046;52.074;4.748;2022-08-30T05:15:41;20.83;;;15.05;;
30233;SDS011;17046;52.074;4.748;2022-08-30T05:18:08;22.10;;;15.25;;
30233;SDS011;17046;52.074;4.748;2022-08-30T05:20:34;22.45;;;14.88;;
30233;SDS011;17046;52.074;4.748;2022-08-30T05:23:01;19.60;;;14.52;;
30233;SDS011;17046;52.074;4.748;2022-08-30T05:25:28;25.05;;;15.52;;
30233;SDS011;17046;52.074;4.748;2022-08-30T05:27:55;20.67;;;14.30;;
30233;SDS011;17046;52.074;4.748;2022-08-30T05:30:21;17.40;;;14.27;;
30233;SDS011;17046;52.074;4.748;2022-08-30T05:32:48;21.88;;;14.88;;
30233;SDS011;17046;52.074;4.748;2022-08-30T05:35:14;16.88;;;13.23;;
30233;SDS011;17046;52.074;4.748;2022-08-30T05:37:40;20.25;;;14.65;;
30233;SDS011;17046;52.074;4.748;2022-08-30T05:40:06;17.35;;;13.02;;
30233;SDS011;17046;52.074;4.748;2022-08-30T05:42:33;16.38;;;12.68;;
30233;SDS011;17046;52.074;4.748;2022-08-30T05:44:59;17.98;;;13.40;;
30233;SDS011;17046;52.074;4.748;2022-08-30T05:47:25;18.60;;;13.05;;
30233;SDS011;17046;52.074;4.748;2022-08-30T05:49:51;15.38;;;12.18;;
30233;SDS011;17046;52.074;4.748;2022-08-30T05:52:16;15.07;;;11.75;;
30233;SDS011;17046;52.074;4.748;2022-08-30T05:54:49;16.83;;;11.95;;
30233;SDS011;17046;52.074;4.748;2022-08-30T05:57:16;16.02;;;11.60;;
30233;SDS011;17046;52.074;4.748;2022-08-30T05:59:42;13.77;;;11.25;;
30233;SDS011;17046;52.074;4.748;2022-08-30T06:02:08;17.48;;;12.10;;
30233;SDS011;17046;52.074;4.748;2022-08-30T06:04:34;15.40;;;12.50;;
30233;SDS011;17046;52.074;4.748;2022-08-30T06:07:00;13.95;;;11.85;;
30233;SDS011;17046;52.074;4.748;2022-08-30T06:09:26;14.40;;;12.13;;
30233;SDS011;17046;52.074;4.748;2022-08-30T06:11:52;14.32;;;12.23;;
30233;SDS011;17046;52.074;4.748;2022-08-30T06:14:17;17.70;;;11.65;;
30233;SDS011;17046;52.074;4.748;2022-08-30T06:16:43;15.90;;;12.30;;
30233;SDS011;17046;52.074;4.748;2022-08-30T06:19:10;14.77;;;11.43;;
30233;SDS011;17046;52.074;4.748;2022-08-30T06:21:38;13.02;;;10.82;;
30233;SDS011;17046;52.074;4.748;2022-08-30T06:24:05;14.60;;;10.35;;
30233;SDS011;17046;52.074;4.748;2022-08-30T06:26:35;13.02;;;9.73;;
30233;SDS011;17046;52.074;4.748;2022-08-30T06:29:03;12.02;;;8.75;;
30233;SDS011;17046;52.074;4.748;2022-08-30T06:31:28;12.93;;;8.15;;
30233;SDS011;17046;52.074;4.748;2022-08-30T06:33:54;9.63;;;6.72;;
30233;SDS011;17046;52.074;4.748;2022-08-30T06:36:22;9.02;;;6.47;;
30233;SDS011;17046;52.074;4.748;2022-08-30T06:38:49;7.15;;;5.50;;
30233;SDS011;17046;52.074;4.748;2022-08-30T06:41:23;9.65;;;5.72;;
30233;SDS011;17046;52.074;4.748;2022-08-30T06:43:50;8.65;;;5.10;;
30233;SDS011;17046;52.074;4.748;2022-08-30T06:46:18;8.55;;;5.32;;
30233;SDS011;17046;52.074;4.748;2022-08-30T06:48:46;9.73;;;5.25;;
30233;SDS011;17046;52.074;4.748;2022-08-30T06:51:12;7.95;;;4.78;;
30233;SDS011;17046;52.074;4.748;2022-08-30T06:53:37;6.68;;;4.45;;
30233;SDS011;17046;52.074;4.748;2022-08-30T06:56:07;6.10;;;4.50;;
30233;SDS011;17046;52.074;4.748;2022-08-30T06:58:35;6.93;;;4.40;;
30233;SDS011;17046;52.074;4.748;2022-08-30T07:01:02;4.65;;;3.70;;
30233;SDS011;17046;52.074;4.748;2022-08-30T07:03:28;5.93;;;4.40;;
30233;SDS011;17046;52.074;4.748;2022-08-30T07:05:55;9.32;;;5.35;;
30233;SDS011;17046;52.074;4.748;2022-08-30T07:08:21;8.55;;;4.38;;
30233;SDS011;17046;52.074;4.748;2022-08-30T07:10:48;6.93;;;4.63;;
30233;SDS011;17046;52.074;4.748;2022-08-30T07:13:14;7.47;;;4.55;;
30233;SDS011;17046;52.074;4.748;2022-08-30T07:15:41;10.48;;;4.50;;
30233;SDS011;17046;52.074;4.748;2022-08-30T07:18:09;6.07;;;4.13;;
30233;SDS011;17046;52.074;4.748;2022-08-30T07:20:54;4.25;;;2.83;;
30233;SDS011;17046;52.074;4.748;2022-08-30T07:23:20;5.70;;;2.90;;
30233;SDS011;17046;52.074;4.748;2022-08-30T07:25:46;5.60;;;3.10;;
30233;SDS011;17046;52.074;4.748;2022-08-30T07:28:12;7.75;;;2.95;;
30233;SDS011;17046;52.074;4.748;2022-08-30T07:30:39;7.13;;;3.60;;
30233;SDS011;17046;52.074;4.748;2022-08-30T07:33:05;5.40;;;2.60;;
30233;SDS011;17046;52.074;4.748;2022-08-30T07:35:31;4.05;;;2.67;;
30233;SDS011;17046;52.074;4.748;2022-08-30T07:37:57;5.63;;;2.70;;
30233;SDS011;17046;52.074;4.748;2022-08-30T07:40:23;6.55;;;2.80;;
30233;SDS011;17046;52.074;4.748;2022-08-30T07:42:49;6.18;;;3.60;;
30233;SDS011;17046;52.074;4.748;2022-08-30T07:45:15;5.50;;;2.47;;
30233;SDS011;17046;52.074;4.748;2022-08-30T07:47:40;3.53;;;2.30;;
30233;SDS011;17046;52.074;4.748;2022-08-30T07:50:07;6.07;;;2.38;;
30233;SDS011;17046;52.074;4.748;2022-08-30T07:52:32;4.38;;;2.30;;
30233;SDS011;17046;52.074;4.748;2022-08-30T07:54:58;5.68;;;2.30;;
30233;SDS011;17046;52.074;4.748;2022-08-30T07:57:25;2.97;;;2.22;;
30233;SDS011;17046;52.074;4.748;2022-08-30T07:59:51;8.52;;;2.65;;
30233;SDS011;17046;52.074;4.748;2022-08-30T08:02:17;2.72;;;1.85;;
30233;SDS011;17046;52.074;4.748;2022-08-30T08:04:43;8.65;;;2.38;;
30233;SDS011;17046;52.074;4.748;2022-08-30T08:07:08;5.93;;;1.85;;
30233;SDS011;17046;52.074;4.748;2022-08-30T08:09:35;3.83;;;1.67;;
30233;SDS011;17046;52.074;4.748;2022-08-30T08:12:02;6.40;;;1.77;;
30233;SDS011;17046;52.074;4.748;2022-08-30T08:14:29;1.95;;;1.38;;
30233;SDS011;17046;52.074;4.748;2022-08-30T08:16:55;4.15;;;1.90;;
30233;SDS011;17046;52.074;4.748;2022-08-30T08:19:20;4.20;;;1.80;;
30233;SDS011;17046;52.074;4.748;2022-08-30T08:21:46;7.38;;;1.80;;
30233;SDS011;17046;52.074;4.748;2022-08-30T08:24:12;3.15;;;1.27;;
30233;SDS011;17046;52.074;4.748;2022-08-30T08:26:37;2.92;;;1.75;;
30233;SDS011;17046;52.074;4.748;2022-08-30T08:29:04;4.57;;;1.90;;
30233;SDS011;17046;52.074;4.748;2022-08-30T08:31:31;5.80;;;2.42;;
30233;SDS011;17046;52.074;4.748;2022-08-30T08:33:57;3.95;;;1.30;;
30233;SDS011;17046;52.074;4.748;2022-08-30T08:36:24;6.13;;;1.67;;
30233;SDS011;17046;52.074;4.748;2022-08-30T08:38:50;3.05;;;1.60;;
30233;SDS011;17046;52.074;4.748;2022-08-30T08:44:06;4.07;;;1.52;;
30233;SDS011;17046;52.074;4.748;2022-08-30T08:46:55;4.03;;;1.40;;
30233;SDS011;17046;52.074;4.748;2022-08-30T08:49:29;8.20;;;1.55;;
30233;SDS011;17046;52.074;4.748;2022-08-30T08:51:55;5.00;;;1.48;;
30233;SDS011;17046;52.074;4.748;2022-08-30T08:54:45;4.45;;;1.58;;
30233;SDS011;17046;52.074;4.748;2022-08-30T08:57:17;6.85;;;1.60;;
30233;SDS011;17046;52.074;4.748;2022-08-30T08:59:43;2.33;;;1.35;;
30233;SDS011;17046;52.074;4.748;2022-08-30T09:02:26;2.40;;;1.30;;
30233;SDS011;17046;52.074;4.748;2022-08-30T09:04:59;2.70;;;1.35;;
30233;SDS011;17046;52.074;4.748;2022-08-30T09:07:29;5.75;;;1.50;;
30233;SDS011;17046;52.074;4.748;2022-08-30T09:09:59;3.50;;;1.42;;
30233;SDS011;17046;52.074;4.748;2022-08-30T09:12:26;4.63;;;2.13;;
30233;SDS011;17046;52.074;4.748;2022-08-30T09:14:54;2.38;;;1.60;;
30233;SDS011;17046;52.074;4.748;2022-08-30T09:17:25;2.67;;;1.45;;
30233;SDS011;17046;52.074;4.748;2022-08-30T09:22:21;4.13;;;1.80;;
30233;SDS011;17046;52.074;4.748;2022-08-30T09:24:53;5.15;;;1.65;;
30233;SDS011;17046;52.074;4.748;2022-08-30T09:27:30;4.70;;;1.50;;
30233;SDS011;17046;52.074;4.748;2022-08-30T09:32:35;2.95;;;1.48;;
30233;SDS011;17046;52.074;4.748;2022-08-30T09:35:03;5.35;;;1.45;;
30233;SDS011;17046;52.074;4.748;2022-08-30T09:37:43;4.30;;;1.85;;
30233;SDS011;17046;52.074;4.748;2022-08-30T09:40:23;3.10;;;1.70;;
30233;SDS011;17046;52.074;4.748;2022-08-30T09:42:58;4.45;;;1.60;;
30233;SDS011;17046;52.074;4.748;2022-08-30T09:45:32;4.97;;;1.60;;
30233;SDS011;17046;52.074;4.748;2022-08-30T09:53:52;2.17;;;1.17;;
30233;SDS011;17046;52.074;4.748;2022-08-30T09:59:38;2.47;;;1.20;;
30233;SDS011;17046;52.074;4.748;2022-08-30T10:05:04;3.85;;;1.45;;
30233;SDS011;17046;52.074;4.748;2022-08-30T10:07:56;4.10;;;1.60;;
30233;SDS011;17046;52.074;4.748;2022-08-30T10:10:30;6.45;;;1.63;;
30233;SDS011;17046;52.074;4.748;2022-08-30T10:13:12;4.00;;;1.50;;
30233;SDS011;17046;52.074;4.748;2022-08-30T10:16:10;3.53;;;1.42;;
30233;SDS011;17046;52.074;4.748;2022-08-30T10:24:09;2.05;;;1.40;;
30233;SDS011;17046;52.074;4.748;2022-08-30T10:26:42;2.75;;;1.63;;
30233;SDS011;17046;52.074;4.748;2022-08-30T10:34:31;5.03;;;1.30;;
30233;SDS011;17046;52.074;4.748;2022-08-30T10:37:06;3.70;;;1.20;;
30233;SDS011;17046;52.074;4.748;2022-08-30T10:39:45;6.88;;;1.35;;
30233;SDS011;17046;52.074;4.748;2022-08-30T10:42:17;2.78;;;1.15;;
30233;SDS011;17046;52.074;4.748;2022-08-30T10:44:49;4.07;;;1.45;;
30233;SDS011;17046;52.074;4.748;2022-08-30T10:47:23;3.47;;;1.73;;
30233;SDS011;17046;52.074;4.748;2022-08-30T10:50:05;3.47;;;1.30;;
30233;SDS011;17046;52.074;4.748;2022-08-30T10:55:22;6.03;;;1.30;;
30233;SDS011;17046;52.074;4.748;2022-08-30T10:57:50;4.75;;;1.10;;
30233;SDS011;17046;52.074;4.748;2022-08-30T11:00:27;2.72;;;1.30;;
30233;SDS011;17046;52.074;4.748;2022-08-30T11:05:59;3.05;;;1.10;;
30233;SDS011;17046;52.074;4.748;2022-08-30T11:13:59;2.08;;;1.10;;
30233;SDS011;17046;52.074;4.748;2022-08-30T11:16:38;2.60;;;1.25;;
30233;SDS011;17046;52.074;4.748;2022-08-30T11:19:14;3.80;;;1.17;;
30233;SDS011;17046;52.074;4.748;2022-08-30T11:21:43;8.98;;;3.50;;
30233;SDS011;17046;52.074;4.748;2022-08-30T11:24:17;4.00;;;1.20;;
30233;SDS011;17046;52.074;4.748;2022-08-30T11:32:18;3.15;;;1.10;;
30233;SDS011;17046;52.074;4.748;2022-08-30T11:34:58;2.40;;;1.20;;
30233;SDS011;17046;52.074;4.748;2022-08-30T11:37:31;3.97;;;1.30;;
30233;SDS011;17046;52.074;4.748;2022-08-30T11:40:08;2.50;;;1.30;;
30233;SDS011;17046;52.074;4.748;2022-08-30T11:42:44;4.28;;;1.20;;
30233;SDS011;17046;52.074;4.748;2022-08-30T11:47:49;3.40;;;1.27;;
30233;SDS011;17046;52.074;4.748;2022-08-30T11:50:20;4.55;;;1.35;;
30233;SDS011;17046;52.074;4.748;2022-08-30T11:55:37;5.38;;;1.33;;
30233;SDS011;17046;52.074;4.748;2022-08-30T12:00:36;3.38;;;1.20;;
30233;SDS011;17046;52.074;4.748;2022-08-30T12:05:55;4.72;;;2.50;;
30233;SDS011;17046;52.074;4.748;2022-08-30T12:11:04;5.07;;;1.45;;
30233;SDS011;17046;52.074;4.748;2022-08-30T12:13:51;5.00;;;1.80;;
30233;SDS011;17046;52.074;4.748;2022-08-30T12:16:22;3.38;;;1.30;;
30233;SDS011;17046;52.074;4.748;2022-08-30T12:19:27;3.75;;;1.48;;
30233;SDS011;17046;52.074;4.748;2022-08-30T12:21:58;3.65;;;1.27;;
30233;SDS011;17046;52.074;4.748;2022-08-30T12:24:31;3.97;;;1.30;;
30233;SDS011;17046;52.074;4.748;2022-08-30T12:27:01;5.25;;;1.35;;
30233;SDS011;17046;52.074;4.748;2022-08-30T12:29:53;2.22;;;1.40;;
30233;SDS011;17046;52.074;4.748;2022-08-30T12:32:22;3.38;;;1.55;;
30233;SDS011;17046;52.074;4.748;2022-08-30T12:34:50;4.70;;;1.50;;
30233;SDS011;17046;52.074;4.748;2022-08-30T12:37:22;3.55;;;1.60;;
30233;SDS011;17046;52.074;4.748;2022-08-30T12:42:32;4.65;;;1.73;;
30233;SDS011;17046;52.074;4.748;2022-08-30T12:45:05;4.38;;;1.45;;
30233;SDS011;17046;52.074;4.748;2022-08-30T12:47:48;4.43;;;1.80;;
30233;SDS011;17046;52.074;4.748;2022-08-30T12:50:24;2.83;;;1.20;;
30233;SDS011;17046;52.074;4.748;2022-08-30T12:53:03;3.15;;;1.73;;
30233;SDS011;17046;52.074;4.748;2022-08-30T12:55:33;4.00;;;1.80;;
30233;SDS011;17046;52.074;4.748;2022-08-30T12:58:13;4.72;;;1.63;;
30233;SDS011;17046;52.074;4.748;2022-08-30T13:00:45;4.47;;;1.60;;
30233;SDS011;17046;52.074;4.748;2022-08-30T13:06:02;4.55;;;1.90;;
30233;SDS011;17046;52.074;4.748;2022-08-30T13:08:34;5.85;;;2.08;;
30233;SDS011;17046;52.074;4.748;2022-08-30T13:11:33;3.13;;;1.48;;
30233;SDS011;17046;52.074;4.748;2022-08-30T13:14:42;6.78;;;1.92;;
30233;SDS011;17046;52.074;4.748;2022-08-30T13:23:06;5.38;;;1.83;;
30233;SDS011;17046;52.074;4.748;2022-08-30T13:25:34;5.40;;;2.10;;
30233;SDS011;17046;52.074;4.748;2022-08-30T13:28:02;4.43;;;1.58;;
30233;SDS011;17046;52.074;4.748;2022-08-30T13:30:29;5.80;;;2.05;;
30233;SDS011;17046;52.074;4.748;2022-08-30T13:32:56;5.20;;;1.67;;
30233;SDS011;17046;52.074;4.748;2022-08-30T13:35:22;3.92;;;1.67;;
30233;SDS011;17046;52.074;4.748;2022-08-30T13:37:48;4.50;;;1.55;;
30233;SDS011;17046;52.074;4.748;2022-08-30T13:40:14;4.10;;;1.67;;
30233;SDS011;17046;52.074;4.748;2022-08-30T13:42:41;2.55;;;1.50;;
30233;SDS011;17046;52.074;4.748;2022-08-30T13:45:07;4.97;;;1.95;;
30233;SDS011;17046;52.074;4.748;2022-08-30T13:47:37;4.90;;;1.80;;
30233;SDS011;17046;52.074;4.748;2022-08-30T13:50:03;3.97;;;1.80;;
30233;SDS011;17046;52.074;4.748;2022-08-30T13:52:29;5.13;;;1.60;;
30233;SDS011;17046;52.074;4.748;2022-08-30T13:54:55;3.50;;;1.60;;
30233;SDS011;17046;52.074;4.748;2022-08-30T13:57:22;4.28;;;1.70;;
30233;SDS011;17046;52.074;4.748;2022-08-30T13:59:49;4.10;;;1.50;;
30233;SDS011;17046;52.074;4.748;2022-08-30T14:02:15;2.80;;;1.60;;
30233;SDS011;17046;52.074;4.748;2022-08-30T14:04:40;5.38;;;1.63;;
30233;SDS011;17046;52.074;4.748;2022-08-30T14:07:06;5.75;;;2.08;;
30233;SDS011;17046;52.074;4.748;2022-08-30T14:09:32;3.63;;;1.73;;
30233;SDS011;17046;52.074;4.748;2022-08-30T14:11:57;4.57;;;1.85;;
30233;SDS011;17046;52.074;4.748;2022-08-30T14:14:23;3.80;;;1.70;;
30233;SDS011;17046;52.074;4.748;2022-08-30T14:16:49;4.80;;;1.92;;
30233;SDS011;17046;52.074;4.748;2022-08-30T14:19:15;7.60;;;2.00;;
30233;SDS011;17046;52.074;4.748;2022-08-30T14:21:42;4.28;;;1.90;;
30233;SDS011;17046;52.074;4.748;2022-08-30T14:24:09;3.15;;;1.50;;
30233;SDS011;17046;52.074;4.748;2022-08-30T14:26:36;6.15;;;1.48;;
30233;SDS011;17046;52.074;4.748;2022-08-30T14:29:09;2.25;;;1.38;;
30233;SDS011;17046;52.074;4.748;2022-08-30T14:31:37;3.13;;;1.60;;
30233;SDS011;17046;52.074;4.748;2022-08-30T14:34:04;4.50;;;1.60;;
30233;SDS011;17046;52.074;4.748;2022-08-30T14:36:30;3.92;;;1.45;;
30233;SDS011;17046;52.074;4.748;2022-08-30T14:38:57;3.05;;;1.38;;
30233;SDS011;17046;52.074;4.748;2022-08-30T14:41:23;5.22;;;1.33;;
30233;SDS011;17046;52.074;4.748;2022-08-30T14:43:50;2.67;;;1.60;;
30233;SDS011;17046;52.074;4.748;2022-08-30T14:46:15;3.28;;;1.58;;
30233;SDS011;17046;52.074;4.748;2022-08-30T14:48:41;3.40;;;1.23;;
30233;SDS011;17046;52.074;4.748;2022-08-30T14:51:13;4.18;;;1.48;;
30233;SDS011;17046;52.074;4.748;2022-08-30T14:53:40;8.68;;;1.63;;
30233;SDS011;17046;52.074;4.748;2022-08-30T14:56:08;3.85;;;1.20;;
30233;SDS011;17046;52.074;4.748;2022-08-30T14:58:34;2.60;;;1.35;;
30233;SDS011;17046;52.074;4.748;2022-08-30T15:01:00;2.97;;;1.33;;
30233;SDS011;17046;52.074;4.748;2022-08-30T15:03:26;3.13;;;1.50;;
30233;SDS011;17046;52.074;4.748;2022-08-30T15:05:52;4.60;;;1.30;;
30233;SDS011;17046;52.074;4.748;2022-08-30T15:08:17;3.33;;;1.17;;
30233;SDS011;17046;52.074;4.748;2022-08-30T15:10:43;2.38;;;1.23;;
30233;SDS011;17046;52.074;4.748;2022-08-30T15:13:09;2.63;;;1.02;;
30233;SDS011;17046;52.074;4.748;2022-08-30T15:15:35;3.45;;;1.40;;
30233;SDS011;17046;52.074;4.748;2022-08-30T15:18:01;3.20;;;1.52;;
30233;SDS011;17046;52.074;4.748;2022-08-30T15:20:26;3.33;;;1.30;;
30233;SDS011;17046;52.074;4.748;2022-08-30T15:22:52;4.72;;;1.38;;
30233;SDS011;17046;52.074;4.748;2022-08-30T15:25:18;4.82;;;1.55;;
30233;SDS011;17046;52.074;4.748;2022-08-30T15:27:43;3.10;;;1.33;;
30233;SDS011;17046;52.074;4.748;2022-08-30T15:30:09;4.80;;;1.38;;
30233;SDS011;17046;52.074;4.748;2022-08-30T15:32:36;2.42;;;1.30;;
30233;SDS011;17046;52.074;4.748;2022-08-30T15:35:02;4.28;;;1.58;;
30233;SDS011;17046;52.074;4.748;2022-08-30T15:37:28;4.28;;;1.48;;
30233;SDS011;17046;52.074;4.748;2022-08-30T15:39:54;2.97;;;1.40;;
30233;SDS011;17046;52.074;4.748;2022-08-30T15:42:19;5.45;;;1.25;;
30233;SDS011;17046;52.074;4.748;2022-08-30T15:44:49;2.42;;;1.42;;
30233;SDS011;17046;52.074;4.748;2022-08-30T15:47:17;3.63;;;1.30;;
30233;SDS011;17046;52.074;4.748;2022-08-30T15:49:44;6.03;;;1.30;;
30233;SDS011;17046;52.074;4.748;2022-08-30T15:52:09;4.47;;;1.20;;
30233;SDS011;17046;52.074;4.748;2022-08-30T15:54:35;3.13;;;1.20;;
30233;SDS011;17046;52.074;4.748;2022-08-30T15:57:00;2.92;;;1.63;;
30233;SDS011;17046;52.074;4.748;2022-08-30T15:59:29;3.83;;;1.45;;
30233;SDS011;17046;52.074;4.748;2022-08-30T16:01:55;4.30;;;1.20;;
30233;SDS011;17046;52.074;4.748;2022-08-30T16:04:21;2.88;;;1.42;;